sensor_id;sensor_type;location;lat;lon;timestamp;pressure;altitude;pressure_sealevel;temperature;humidity
66945;BME280;53853;51.982;5.928;2023-03-04T00:01:02;102532.28;;;7.66;58.59
66945;BME280;53853;51.982;5.928;2023-03-04T00:03:32;102546.38;;;7.67;58.38
66945;BME280;53853;51.982;5.928;2023-03-04T00:06:03;102530.47;;;7.67;58.60
66945;BME280;53853;51.982;5.928;2023-03-04T00:08:36;102543.06;;;7.63;58.86
66945;BME280;53853;51.982;5.928;2023-03-04T00:11:06;102536.69;;;7.66;58.89
66945;BME280;53853;51.982;5.928;2023-03-04T00:13:36;102542.88;;;7.66;59.04
66945;BME280;53853;51.982;5.928;2023-03-04T00:16:06;102551.88;;;7.64;58.87
66945;BME280;53853;51.982;5.928;2023-03-04T00:18:36;102537.84;;;7.61;58.74
66945;BME280;53853;51.982;5.928;2023-03-04T00:21:06;102539.72;;;7.59;58.97
66945;BME280;53853;51.982;5.928;2023-03-04T00:23:39;102539.72;;;7.59;59.00
66945;BME280;53853;51.982;5.928;2023-03-04T00:26:10;102541.59;;;7.57;59.15
66945;BME280;53853;51.982;5.928;2023-03-04T00:28:41;102540.84;;;7.55;59.19
66945;BME280;53853;51.982;5.928;2023-03-04T00:31:11;102548.81;;;7.55;59.29
66945;BME280;53853;51.982;5.928;2023-03-04T00:33:41;102536.47;;;7.54;59.36
66945;BME280;53853;51.982;5.928;2023-03-04T00:36:11;102531.34;;;7.51;59.38
66945;BME280;53853;51.982;5.928;2023-03-04T00:38:43;102536.81;;;7.48;59.74
66945;BME280;53853;51.982;5.928;2023-03-04T00:41:13;102538.72;;;7.46;59.78
66945;BME280;53853;51.982;5.928;2023-03-04T00:43:43;102529.91;;;7.46;59.50
66945;BME280;53853;51.982;5.928;2023-03-04T00:46:13;102538.88;;;7.43;59.79
66945;BME280;53853;51.982;5.928;2023-03-04T00:48:43;102532.03;;;7.39;59.59
66945;BME280;53853;51.982;5.928;2023-03-04T00:51:13;102537.50;;;7.36;59.93
66945;BME280;53853;51.982;5.928;2023-03-04T00:53:45;102532.13;;;7.37;59.91
66945;BME280;53853;51.982;5.928;2023-03-04T00:56:15;102531.44;;;7.34;60.14
66945;BME280;53853;51.982;5.928;2023-03-04T00:58:45;102536.16;;;7.29;60.08
66945;BME280;53853;51.982;5.928;2023-03-04T01:01:15;102535.81;;;7.35;59.88
66945;BME280;53853;51.982;5.928;2023-03-04T01:03:45;102532.19;;;7.36;60.24
66945;BME280;53853;51.982;5.928;2023-03-04T01:06:15;102530.69;;;7.32;60.16
66945;BME280;53853;51.982;5.928;2023-03-04T01:08:47;102539.41;;;7.34;60.17
66945;BME280;53853;51.982;5.928;2023-03-04T01:11:17;102534.94;;;7.34;60.30
66945;BME280;53853;51.982;5.928;2023-03-04T01:13:47;102531.44;;;7.34;60.40
66945;BME280;53853;51.982;5.928;2023-03-04T01:16:17;102534.78;;;7.37;60.54
66945;BME280;53853;51.982;5.928;2023-03-04T01:18:48;102531.28;;;7.37;60.63
66945;BME280;53853;51.982;5.928;2023-03-04T01:21:18;102527.78;;;7.36;60.65
66945;BME280;53853;51.982;5.928;2023-03-04T01:23:51;102523.22;;;7.38;60.61
66945;BME280;53853;51.982;5.928;2023-03-04T01:26:21;102524.06;;;7.39;60.61
66945;BME280;53853;51.982;5.928;2023-03-04T01:28:51;102523.22;;;7.38;60.70
66945;BME280;53853;51.982;5.928;2023-03-04T01:31:21;102522.22;;;7.41;60.71
66945;BME280;53853;51.982;5.928;2023-03-04T01:33:52;102521.34;;;7.40;60.83
66945;BME280;53853;51.982;5.928;2023-03-04T01:36:22;102517.94;;;7.38;60.70
66945;BME280;53853;51.982;5.928;2023-03-04T01:38:54;102517.16;;;7.36;60.75
66945;BME280;53853;51.982;5.928;2023-03-04T01:41:26;102519.16;;;7.33;61.00
66945;BME280;53853;51.982;5.928;2023-03-04T01:43:57;102515.53;;;7.34;61.03
66945;BME280;53853;51.982;5.928;2023-03-04T01:46:29;102514.69;;;7.33;61.19
66945;BME280;53853;51.982;5.928;2023-03-04T01:49:00;102513.06;;;7.31;61.40
66945;BME280;53853;51.982;5.928;2023-03-04T01:51:30;102509.16;;;7.22;61.54
66945;BME280;53853;51.982;5.928;2023-03-04T01:54:02;102494.25;;;7.19;61.21
66945;BME280;53853;51.982;5.928;2023-03-04T01:56:35;102493.75;;;7.13;61.68
66945;BME280;53853;51.982;5.928;2023-03-04T01:59:10;102496.31;;;7.14;61.48
66945;BME280;53853;51.982;5.928;2023-03-04T02:01:42;102496.16;;;7.17;61.55
66945;BME280;53853;51.982;5.928;2023-03-04T02:04:13;102498.53;;;7.22;61.38
66945;BME280;53853;51.982;5.928;2023-03-04T02:06:46;102503.84;;;7.22;61.46
66945;BME280;53853;51.982;5.928;2023-03-04T02:09:19;102494.00;;;7.24;61.59
66945;BME280;53853;51.982;5.928;2023-03-04T02:11:51;102481.75;;;7.21;61.53
66945;BME280;53853;51.982;5.928;2023-03-04T02:14:21;102478.34;;;7.19;61.73
66945;BME280;53853;51.982;5.928;2023-03-04T02:16:52;102468.56;;;7.20;61.60
66945;BME280;53853;51.982;5.928;2023-03-04T02:19:35;102474.94;;;7.17;61.63
66945;BME280;53853;51.982;5.928;2023-03-04T02:22:08;102476.78;;;7.15;61.24
66945;BME280;53853;51.982;5.928;2023-03-04T02:24:44;102476.78;;;7.15;61.26
66945;BME280;53853;51.982;5.928;2023-03-04T02:27:19;102482.97;;;7.16;60.35
66945;BME280;53853;51.982;5.928;2023-03-04T02:29:50;102479.56;;;7.14;60.63
66945;BME280;53853;51.982;5.928;2023-03-04T02:32:20;102478.69;;;7.13;60.60
66945;BME280;53853;51.982;5.928;2023-03-04T02:34:50;102470.91;;;7.10;60.49
66945;BME280;53853;51.982;5.928;2023-03-04T02:37:21;102475.09;;;7.14;60.51
66945;BME280;53853;51.982;5.928;2023-03-04T02:39:53;102476.63;;;7.18;60.26
66945;BME280;53853;51.982;5.928;2023-03-04T02:42:26;102474.75;;;7.20;60.35
66945;BME280;53853;51.982;5.928;2023-03-04T02:45:00;102464.81;;;7.24;60.22
66945;BME280;53853;51.982;5.928;2023-03-04T02:47:30;102452.66;;;7.20;59.91
66945;BME280;53853;51.982;5.928;2023-03-04T02:50:00;102459.97;;;7.16;59.74
66945;BME280;53853;51.982;5.928;2023-03-04T02:52:30;102468.09;;;7.13;59.84
66945;BME280;53853;51.982;5.928;2023-03-04T02:55:00;102462.09;;;7.10;59.82
66945;BME280;53853;51.982;5.928;2023-03-04T02:57:33;102455.97;;;7.09;59.63
66945;BME280;53853;51.982;5.928;2023-03-04T03:00:04;102454.25;;;7.08;59.56
66945;BME280;53853;51.982;5.928;2023-03-04T03:02:35;102443.91;;;7.03;59.94
66945;BME280;53853;51.982;5.928;2023-03-04T03:05:06;102454.50;;;7.03;59.84
66945;BME280;53853;51.982;5.928;2023-03-04T03:07:36;102449.88;;;7.07;59.86
66945;BME280;53853;51.982;5.928;2023-03-04T03:10:08;102442.53;;;7.12;59.87
66945;BME280;53853;51.982;5.928;2023-03-04T03:12:41;102441.41;;;7.16;59.66
66945;BME280;53853;51.982;5.928;2023-03-04T03:15:12;102435.06;;;7.19;59.81
66945;BME280;53853;51.982;5.928;2023-03-04T03:17:42;102437.56;;;7.22;59.47
66945;BME280;53853;51.982;5.928;2023-03-04T03:20:15;102436.69;;;7.21;59.48
66945;BME280;53853;51.982;5.928;2023-03-04T03:22:46;102426.94;;;7.22;59.68
66945;BME280;53853;51.982;5.928;2023-03-04T03:25:17;102431.97;;;7.27;59.79
66945;BME280;53853;51.982;5.928;2023-03-04T03:27:49;102428.38;;;7.28;59.54
66945;BME280;53853;51.982;5.928;2023-03-04T03:30:20;102419.47;;;7.29;59.65
66945;BME280;53853;51.982;5.928;2023-03-04T03:32:50;102420.31;;;7.29;59.65
66945;BME280;53853;51.982;5.928;2023-03-04T03:35:20;102416.75;;;7.30;59.54
66945;BME280;53853;51.982;5.928;2023-03-04T03:37:50;102409.63;;;7.31;59.78
66945;BME280;53853;51.982;5.928;2023-03-04T03:40:20;102414.94;;;7.31;60.04
66945;BME280;53853;51.982;5.928;2023-03-04T03:42:53;102420.41;;;7.28;60.33
66945;BME280;53853;51.982;5.928;2023-03-04T03:45:23;102417.28;;;7.21;60.60
66945;BME280;53853;51.982;5.928;2023-03-04T03:47:52;102426.16;;;7.20;60.96
66945;BME280;53853;51.982;5.928;2023-03-04T03:50:22;102421.72;;;7.20;60.94
66945;BME280;53853;51.982;5.928;2023-03-04T03:52:54;102429.78;;;7.19;61.52
66945;BME280;53853;51.982;5.928;2023-03-04T03:55:24;102429.06;;;7.15;61.53
66945;BME280;53853;51.982;5.928;2023-03-04T03:57:56;102426.34;;;7.17;61.54
66945;BME280;53853;51.982;5.928;2023-03-04T04:00:26;102423.59;;;7.18;61.25
66945;BME280;53853;51.982;5.928;2023-03-04T04:02:57;102427.97;;;7.19;61.23
66945;BME280;53853;51.982;5.928;2023-03-04T04:05:28;102428.72;;;7.21;61.13
66945;BME280;53853;51.982;5.928;2023-03-04T04:07:58;102427.03;;;7.20;61.18
66945;BME280;53853;51.982;5.928;2023-03-04T04:10:28;102426.84;;;7.23;61.29
66945;BME280;53853;51.982;5.928;2023-03-04T04:13:00;102428.72;;;7.21;61.26
66945;BME280;53853;51.982;5.928;2023-03-04T04:15:30;102427.03;;;7.20;61.15
66945;BME280;53853;51.982;5.928;2023-03-04T04:18:00;102426.34;;;7.17;61.45
66945;BME280;53853;51.982;5.928;2023-03-04T04:20:30;102428.22;;;7.15;61.31
66945;BME280;53853;51.982;5.928;2023-03-04T04:23:00;102419.34;;;7.16;61.16
66945;BME280;53853;51.982;5.928;2023-03-04T04:25:30;102423.59;;;7.18;61.11
66945;BME280;53853;51.982;5.928;2023-03-04T04:28:03;102423.59;;;7.18;61.21
66945;BME280;53853;51.982;5.928;2023-03-04T04:30:33;102422.75;;;7.18;61.23
66945;BME280;53853;51.982;5.928;2023-03-04T04:33:03;102423.59;;;7.18;61.43
66945;BME280;53853;51.982;5.928;2023-03-04T04:35:34;102420.75;;;7.21;61.25
66945;BME280;53853;51.982;5.928;2023-03-04T04:38:05;102428.81;;;7.20;61.31
66945;BME280;53853;51.982;5.928;2023-03-04T04:40:35;102420.75;;;7.21;61.41
66945;BME280;53853;51.982;5.928;2023-03-04T04:43:07;102422.56;;;7.21;61.61
66945;BME280;53853;51.982;5.928;2023-03-04T04:45:37;102427.88;;;7.21;61.78
66945;BME280;53853;51.982;5.928;2023-03-04T04:48:07;102431.47;;;7.20;61.98
66945;BME280;53853;51.982;5.928;2023-03-04T04:50:37;102427.03;;;7.20;62.01
66945;BME280;53853;51.982;5.928;2023-03-04T04:53:07;102435.75;;;7.22;61.98
66945;BME280;53853;51.982;5.928;2023-03-04T04:55:37;102426.84;;;7.23;62.03
66945;BME280;53853;51.982;5.928;2023-03-04T04:58:09;102425.91;;;7.24;61.99
66945;BME280;53853;51.982;5.928;2023-03-04T05:00:39;102430.34;;;7.24;62.50
66945;BME280;53853;51.982;5.928;2023-03-04T05:03:09;102431.28;;;7.23;62.41
66945;BME280;53853;51.982;5.928;2023-03-04T05:05:39;102430.44;;;7.22;62.62
66945;BME280;53853;51.982;5.928;2023-03-04T05:08:08;102424.13;;;7.25;62.72
66945;BME280;53853;51.982;5.928;2023-03-04T05:10:38;102431.97;;;7.27;62.50
66945;BME280;53853;51.982;5.928;2023-03-04T05:13:11;102439.84;;;7.28;62.47
66945;BME280;53853;51.982;5.928;2023-03-04T05:15:41;102425.81;;;7.26;63.09
66945;BME280;53853;51.982;5.928;2023-03-04T05:18:11;102438.03;;;7.29;62.81
66945;BME280;53853;51.982;5.928;2023-03-04T05:20:41;102434.72;;;7.25;63.36
66945;BME280;53853;51.982;5.928;2023-03-04T05:23:10;102431.47;;;7.20;63.27
66945;BME280;53853;51.982;5.928;2023-03-04T05:25:40;102427.03;;;7.20;63.54
66945;BME280;53853;51.982;5.928;2023-03-04T05:28:13;102430.63;;;7.19;63.78
66945;BME280;53853;51.982;5.928;2023-03-04T05:30:44;102427.03;;;7.20;63.72
66945;BME280;53853;51.982;5.928;2023-03-04T05:33:16;102427.13;;;7.19;63.74
66945;BME280;53853;51.982;5.928;2023-03-04T05:35:47;102420.94;;;7.18;64.29
66945;BME280;53853;51.982;5.928;2023-03-04T05:38:19;102426.16;;;7.20;64.30
66945;BME280;53853;51.982;5.928;2023-03-04T05:40:54;102430.25;;;7.25;63.77
66945;BME280;53853;51.982;5.928;2023-03-04T05:43:26;102434.81;;;7.23;63.88
66945;BME280;53853;51.982;5.928;2023-03-04T05:45:56;102426.94;;;7.22;64.02
66945;BME280;53853;51.982;5.928;2023-03-04T05:48:27;102428.72;;;7.21;64.18
66945;BME280;53853;51.982;5.928;2023-03-04T05:50:59;102434.09;;;7.20;64.18
66945;BME280;53853;51.982;5.928;2023-03-04T05:53:29;102435.06;;;7.19;64.24
66945;BME280;53853;51.982;5.928;2023-03-04T05:56:00;102433.34;;;7.18;64.27
66945;BME280;53853;51.982;5.928;2023-03-04T05:58:37;102432.59;;;7.16;64.33
66945;BME280;53853;51.982;5.928;2023-03-04T06:01:07;102438.66;;;7.18;64.17
66945;BME280;53853;51.982;5.928;2023-03-04T06:03:38;102436.84;;;7.18;64.02
66945;BME280;53853;51.982;5.928;2023-03-04T06:06:09;102440.28;;;7.20;63.90
66945;BME280;53853;51.982;5.928;2023-03-04T06:08:39;102429.78;;;7.19;64.05
66945;BME280;53853;51.982;5.928;2023-03-04T06:11:09;102437.72;;;7.19;64.20
66945;BME280;53853;51.982;5.928;2023-03-04T06:13:41;102434.19;;;7.18;64.08
66945;BME280;53853;51.982;5.928;2023-03-04T06:16:11;102431.63;;;7.17;64.11
66945;BME280;53853;51.982;5.928;2023-03-04T06:18:41;102433.28;;;7.19;64.28
66945;BME280;53853;51.982;5.928;2023-03-04T06:21:11;102435.00;;;7.20;64.17
66945;BME280;53853;51.982;5.928;2023-03-04T06:23:41;102442.06;;;7.20;64.25
66945;BME280;53853;51.982;5.928;2023-03-04T06:26:11;102438.56;;;7.19;64.25
66945;BME280;53853;51.982;5.928;2023-03-04T06:28:44;102443.13;;;7.17;64.27
66945;BME280;53853;51.982;5.928;2023-03-04T06:31:14;102439.59;;;7.17;64.26
66945;BME280;53853;51.982;5.928;2023-03-04T06:33:44;102441.47;;;7.15;65.31
66945;BME280;53853;51.982;5.928;2023-03-04T06:36:14;102446.78;;;7.15;65.33
66945;BME280;53853;51.982;5.928;2023-03-04T06:38:44;102444.81;;;7.18;65.10
66945;BME280;53853;51.982;5.928;2023-03-04T06:41:14;102441.22;;;7.19;65.41
66945;BME280;53853;51.982;5.928;2023-03-04T06:43:46;102442.75;;;7.23;65.26
66945;BME280;53853;51.982;5.928;2023-03-04T06:46:16;102440.88;;;7.25;65.24
66945;BME280;53853;51.982;5.928;2023-03-04T06:48:46;102442.84;;;7.22;66.34
66945;BME280;53853;51.982;5.928;2023-03-04T06:51:16;102444.63;;;7.21;66.92
66945;BME280;53853;51.982;5.928;2023-03-04T06:53:46;102438.31;;;7.24;66.77
66945;BME280;53853;51.982;5.928;2023-03-04T06:56:16;102445.25;;;7.27;66.72
66945;BME280;53853;51.982;5.928;2023-03-04T06:58:49;102446.59;;;7.34;65.78
66945;BME280;53853;51.982;5.928;2023-03-04T07:01:20;102445.75;;;7.33;65.44
66945;BME280;53853;51.982;5.928;2023-03-04T07:03:51;102452.72;;;7.34;65.60
66945;BME280;53853;51.982;5.928;2023-03-04T07:06:24;102451.53;;;7.40;65.45
66945;BME280;53853;51.982;5.928;2023-03-04T07:08:55;102449.81;;;7.39;65.29
66945;BME280;53853;51.982;5.928;2023-03-04T07:11:25;102455.91;;;7.41;65.47
66945;BME280;53853;51.982;5.928;2023-03-04T07:13:57;102459.31;;;7.43;65.54
66945;BME280;53853;51.982;5.928;2023-03-04T07:16:27;102456.47;;;7.46;65.21
66945;BME280;53853;51.982;5.928;2023-03-04T07:18:57;102459.03;;;7.48;65.06
66945;BME280;53853;51.982;5.928;2023-03-04T07:21:27;102448.44;;;7.48;65.08
66945;BME280;53853;51.982;5.928;2023-03-04T07:23:57;102453.81;;;7.46;65.31
66945;BME280;53853;51.982;5.928;2023-03-04T07:26:27;102454.00;;;7.43;65.25
66945;BME280;53853;51.982;5.928;2023-03-04T07:29:00;102455.03;;;7.40;65.46
66945;BME280;53853;51.982;5.928;2023-03-04T07:31:32;102465.72;;;7.39;65.35
66945;BME280;53853;51.982;5.928;2023-03-04T07:34:04;102464.72;;;7.41;65.47
66945;BME280;53853;51.982;5.928;2023-03-04T07:36:35;102467.09;;;7.46;65.60
66945;BME280;53853;51.982;5.928;2023-03-04T07:39:07;102467.66;;;7.51;65.66
66945;BME280;53853;51.982;5.928;2023-03-04T07:41:37;102468.53;;;7.52;65.46
66945;BME280;53853;51.982;5.928;2023-03-04T07:44:11;102460.47;;;7.53;65.30
66945;BME280;53853;51.982;5.928;2023-03-04T07:46:41;102464.75;;;7.56;65.46
66945;BME280;53853;51.982;5.928;2023-03-04T07:49:12;102465.41;;;7.59;65.68
66945;BME280;53853;51.982;5.928;2023-03-04T07:51:42;102462.22;;;7.69;65.51
66945;BME280;53853;51.982;5.928;2023-03-04T07:54:12;102460.06;;;7.75;66.10
66945;BME280;53853;51.982;5.928;2023-03-04T07:56:42;102463.97;;;7.84;65.54
66945;BME280;53853;51.982;5.928;2023-03-04T07:59:15;102465.50;;;7.88;66.08
66945;BME280;53853;51.982;5.928;2023-03-04T08:01:45;102468.56;;;7.96;65.50
66945;BME280;53853;51.982;5.928;2023-03-04T08:04:15;102466.47;;;8.02;65.80
66945;BME280;53853;51.982;5.928;2023-03-04T08:06:44;102473.88;;;8.11;65.20
66945;BME280;53853;51.982;5.928;2023-03-04T08:09:14;102468.94;;;8.19;64.79
66945;BME280;53853;51.982;5.928;2023-03-04T08:11:44;102463.44;;;8.22;64.66
66945;BME280;53853;51.982;5.928;2023-03-04T08:14:17;102469.88;;;8.32;64.82
66945;BME280;53853;51.982;5.928;2023-03-04T08:16:47;102469.97;;;8.31;65.18
66945;BME280;53853;51.982;5.928;2023-03-04T08:19:17;102472.34;;;8.35;65.60
66945;BME280;53853;51.982;5.928;2023-03-04T08:21:47;102472.16;;;8.39;65.43
66945;BME280;53853;51.982;5.928;2023-03-04T08:24:17;102466.75;;;8.40;65.36
66945;BME280;53853;51.982;5.928;2023-03-04T08:26:48;102472.78;;;8.44;65.70
66945;BME280;53853;51.982;5.928;2023-03-04T08:29:23;102474.63;;;8.42;65.54
66945;BME280;53853;51.982;5.928;2023-03-04T08:31:54;102480.75;;;8.44;66.10
66945;BME280;53853;51.982;5.928;2023-03-04T08:34:25;102476.75;;;8.51;65.81
66945;BME280;53853;51.982;5.928;2023-03-04T08:36:56;102478.28;;;8.55;66.46
66945;BME280;53853;51.982;5.928;2023-03-04T08:39:26;102476.94;;;8.62;66.03
66945;BME280;53853;51.982;5.928;2023-03-04T08:41:55;102480.13;;;8.67;65.57
66945;BME280;53853;51.982;5.928;2023-03-04T08:44:28;102476.16;;;8.75;65.46
66945;BME280;53853;51.982;5.928;2023-03-04T08:46:58;102468.84;;;8.78;64.71
66945;BME280;53853;51.982;5.928;2023-03-04T08:49:28;102468.94;;;8.77;65.55
66945;BME280;53853;51.982;5.928;2023-03-04T08:51:58;102482.47;;;8.86;65.04
66945;BME280;53853;51.982;5.928;2023-03-04T08:54:27;102478.03;;;8.87;64.72
66945;BME280;53853;51.982;5.928;2023-03-04T08:56:57;102476.22;;;8.87;65.11
66945;BME280;53853;51.982;5.928;2023-03-04T08:59:31;102475.84;;;8.94;64.95
66945;BME280;53853;51.982;5.928;2023-03-04T09:02:01;102477.34;;;8.98;65.95
66945;BME280;53853;51.982;5.928;2023-03-04T09:04:31;102478.41;;;8.95;66.87
66945;BME280;53853;51.982;5.928;2023-03-04T09:07:01;102484.84;;;8.91;67.01
66945;BME280;53853;51.982;5.928;2023-03-04T09:09:31;102486.66;;;8.91;67.52
66945;BME280;53853;51.982;5.928;2023-03-04T09:12:01;102484.28;;;8.86;67.94
66945;BME280;53853;51.982;5.928;2023-03-04T09:14:34;102491.53;;;8.84;68.03
66945;BME280;53853;51.982;5.928;2023-03-04T09:17:05;102480.78;;;8.85;68.27
66945;BME280;53853;51.982;5.928;2023-03-04T09:19:36;102483.25;;;8.88;68.72
66945;BME280;53853;51.982;5.928;2023-03-04T09:22:06;102481.06;;;8.95;68.54
66945;BME280;53853;51.982;5.928;2023-03-04T09:24:35;102474.69;;;8.98;68.46
66945;BME280;53853;51.982;5.928;2023-03-04T09:27:05;102473.91;;;8.96;68.96
66945;BME280;53853;51.982;5.928;2023-03-04T09:29:38;102481.59;;;9.00;68.99
66945;BME280;53853;51.982;5.928;2023-03-04T09:32:09;102474.06;;;9.07;68.72
66945;BME280;53853;51.982;5.928;2023-03-04T09:34:39;102480.72;;;9.14;69.49
66945;BME280;53853;51.982;5.928;2023-03-04T09:37:09;102470.53;;;9.21;68.97
66945;BME280;53853;51.982;5.928;2023-03-04T09:39:39;102462.53;;;9.21;69.63
66945;BME280;53853;51.982;5.928;2023-03-04T09:42:11;102476.59;;;9.23;70.03
66945;BME280;53853;51.982;5.928;2023-03-04T09:44:47;102471.16;;;9.24;69.94
66945;BME280;53853;51.982;5.928;2023-03-04T09:47:17;102468.41;;;9.26;69.97
66945;BME280;53853;51.982;5.928;2023-03-04T09:49:53;102454.50;;;9.35;70.01
66945;BME280;53853;51.982;5.928;2023-03-04T09:52:33;102459.66;;;9.51;69.57
66945;BME280;53853;51.982;5.928;2023-03-04T09:55:15;102456.03;;;9.52;69.73
66945;BME280;53853;51.982;5.928;2023-03-04T09:57:50;102460.84;;;9.60;69.21
66945;BME280;53853;51.982;5.928;2023-03-04T10:00:29;102457.97;;;9.63;68.65
66945;BME280;53853;51.982;5.928;2023-03-04T10:03:13;102452.44;;;9.66;68.54
66945;BME280;53853;51.982;5.928;2023-03-04T10:05:50;102451.06;;;9.73;68.23
66945;BME280;53853;51.982;5.928;2023-03-04T10:08:40;102446.06;;;9.82;68.24
66945;BME280;53853;51.982;5.928;2023-03-04T10:11:16;102443.53;;;9.93;68.04
66945;BME280;53853;51.982;5.928;2023-03-04T10:14:01;102453.84;;;9.97;67.39
66945;BME280;53853;51.982;5.928;2023-03-04T10:16:40;102449.50;;;10.09;66.75
66945;BME280;53853;51.982;5.928;2023-03-04T10:19:23;102443.75;;;10.15;66.79
66945;BME280;53853;51.982;5.928;2023-03-04T10:21:58;102440.66;;;10.22;66.52
66945;BME280;53853;51.982;5.928;2023-03-04T10:24:32;102439.03;;;10.19;66.13
66945;BME280;53853;51.982;5.928;2023-03-04T10:27:06;102444.47;;;10.18;65.92
66945;BME280;53853;51.982;5.928;2023-03-04T10:29:40;102443.31;;;10.09;65.50
66945;BME280;53853;51.982;5.928;2023-03-04T10:32:14;102438.09;;;10.07;65.46
66945;BME280;53853;51.982;5.928;2023-03-04T10:34:45;102439.69;;;9.97;65.95
66945;BME280;53853;51.982;5.928;2023-03-04T10:37:14;102445.97;;;9.83;66.42
66945;BME280;53853;51.982;5.928;2023-03-04T10:39:46;102439.06;;;9.81;66.53
66945;BME280;53853;51.982;5.928;2023-03-04T10:42:31;102444.38;;;9.81;66.70
66945;BME280;53853;51.982;5.928;2023-03-04T10:45:03;102440.31;;;9.75;67.62
66945;BME280;53853;51.982;5.928;2023-03-04T10:47:54;102427.72;;;9.64;68.28
66945;BME280;53853;51.982;5.928;2023-03-04T10:50:26;102432.22;;;9.64;68.02
66945;BME280;53853;51.982;5.928;2023-03-04T10:53:01;102431.78;;;9.70;67.99
66945;BME280;53853;51.982;5.928;2023-03-04T10:55:43;102425.06;;;9.64;67.65
66945;BME280;53853;51.982;5.928;2023-03-04T10:58:15;102420.31;;;9.69;67.34
66945;BME280;53853;51.982;5.928;2023-03-04T11:00:58;102417.97;;;9.77;67.04
66945;BME280;53853;51.982;5.928;2023-03-04T11:03:37;102412.44;;;9.81;67.27
66945;BME280;53853;51.982;5.928;2023-03-04T11:06:24;102414.56;;;9.88;67.26
66945;BME280;53853;51.982;5.928;2023-03-04T11:09:04;102415.81;;;9.95;67.41
66945;BME280;53853;51.982;5.928;2023-03-04T11:11:43;102413.16;;;9.95;66.60
66945;BME280;53853;51.982;5.928;2023-03-04T11:14:27;102405.78;;;9.99;66.79
66945;BME280;53853;51.982;5.928;2023-03-04T11:17:08;102414.13;;;10.07;65.89
66945;BME280;53853;51.982;5.928;2023-03-04T11:19:50;102408.81;;;10.07;66.02
66945;BME280;53853;51.982;5.928;2023-03-04T11:22:25;102409.94;;;10.16;66.10
66945;BME280;53853;51.982;5.928;2023-03-04T11:24:58;102405.59;;;10.28;66.06
66945;BME280;53853;51.982;5.928;2023-03-04T11:27:44;102401.81;;;10.30;65.77
66945;BME280;53853;51.982;5.928;2023-03-04T11:30:25;102406.41;;;10.28;64.63
66945;BME280;53853;51.982;5.928;2023-03-04T11:33:05;102406.97;;;10.33;65.25
66945;BME280;53853;51.982;5.928;2023-03-04T11:36:01;102397.03;;;10.36;64.01
66945;BME280;53853;51.982;5.928;2023-03-04T11:38:35;102396.59;;;10.42;63.49
66945;BME280;53853;51.982;5.928;2023-03-04T11:41:12;102386.59;;;10.45;62.58
66945;BME280;53853;51.982;5.928;2023-03-04T11:43:45;102382.00;;;10.47;62.69
66945;BME280;53853;51.982;5.928;2023-03-04T11:52:28;102371.41;;;10.59;62.64
66945;BME280;53853;51.982;5.928;2023-03-04T11:55:14;102366.91;;;10.59;63.14
66945;BME280;53853;51.982;5.928;2023-03-04T11:57:55;102359.44;;;10.64;62.24
66945;BME280;53853;51.982;5.928;2023-03-04T12:00:35;102375.22;;;10.67;62.59
66945;BME280;53853;51.982;5.928;2023-03-04T12:03:25;102373.41;;;10.68;62.05
66945;BME280;53853;51.982;5.928;2023-03-04T12:06:03;102372.78;;;10.64;63.15
66945;BME280;53853;51.982;5.928;2023-03-04T12:08:47;102368.00;;;10.57;65.18
66945;BME280;53853;51.982;5.928;2023-03-04T12:11:29;102368.44;;;10.50;65.67
66945;BME280;53853;51.982;5.928;2023-03-04T12:14:23;102366.00;;;10.47;66.48
66945;BME280;53853;51.982;5.928;2023-03-04T12:20:34;102353.59;;;10.59;66.36
66945;BME280;53853;51.982;5.928;2023-03-04T12:23:21;102347.81;;;10.65;66.27
66945;BME280;53853;51.982;5.928;2023-03-04T12:26:01;102341.69;;;10.76;65.71
66945;BME280;53853;51.982;5.928;2023-03-04T12:28:50;102339.81;;;10.90;65.47
66945;BME280;53853;51.982;5.928;2023-03-04T12:31:37;102336.78;;;10.94;64.30
66945;BME280;53853;51.982;5.928;2023-03-04T12:34:35;102335.44;;;10.88;63.37
66945;BME280;53853;51.982;5.928;2023-03-04T12:37:21;102327.16;;;10.80;62.78
66945;BME280;53853;51.982;5.928;2023-03-04T12:40:14;102345.28;;;10.75;63.42
66945;BME280;53853;51.982;5.928;2023-03-04T12:42:59;102349.41;;;10.68;64.12
66945;BME280;53853;51.982;5.928;2023-03-04T12:45:42;102362.84;;;10.42;62.89
66945;BME280;53853;51.982;5.928;2023-03-04T12:48:23;102351.88;;;10.08;62.29
66945;BME280;53853;51.982;5.928;2023-03-04T12:51:14;102359.59;;;9.74;62.30
66945;BME280;53853;51.982;5.928;2023-03-04T12:53:54;102352.56;;;9.48;63.17
66945;BME280;53853;51.982;5.928;2023-03-04T12:56:36;102345.72;;;9.43;63.88
66945;BME280;53853;51.982;5.928;2023-03-04T12:59:14;102341.81;;;9.36;63.74
66945;BME280;53853;51.982;5.928;2023-03-04T13:01:51;102326.06;;;9.33;63.82
66945;BME280;53853;51.982;5.928;2023-03-04T13:04:28;102327.88;;;9.46;64.11
66945;BME280;53853;51.982;5.928;2023-03-04T13:07:10;102325.09;;;9.60;63.86
66945;BME280;53853;51.982;5.928;2023-03-04T13:09:49;102326.81;;;9.74;63.63
66945;BME280;53853;51.982;5.928;2023-03-04T13:12:20;102323.47;;;9.83;63.63
66945;BME280;53853;51.982;5.928;2023-03-04T13:17:54;102315.50;;;9.96;62.45
66945;BME280;53853;51.982;5.928;2023-03-04T13:20:33;102312.47;;;10.01;62.36
66945;BME280;53853;51.982;5.928;2023-03-04T13:26:15;102312.91;;;10.07;62.18
66945;BME280;53853;51.982;5.928;2023-03-04T13:28:52;102313.47;;;10.00;59.37
66945;BME280;53853;51.982;5.928;2023-03-04T13:31:26;102305.56;;;9.98;58.57
66945;BME280;53853;51.982;5.928;2023-03-04T13:34:03;102295.97;;;9.95;57.41
66945;BME280;53853;51.982;5.928;2023-03-04T13:36:57;102295.66;;;10.00;58.53
66945;BME280;53853;51.982;5.928;2023-03-04T13:39:32;102301.28;;;10.08;58.40
66945;BME280;53853;51.982;5.928;2023-03-04T13:42:03;102310.75;;;10.12;58.04
66945;BME280;53853;51.982;5.928;2023-03-04T13:45:00;102302.03;;;10.10;58.40